Darstellungsparameter: Aktuell verwendete Einstellungen:
Skalierung der Graphiken ... ?
xyx+y,   Skalierungsfaktor:      Skalierung: Modus: x, Faktor: 1
Darstellungszeitraum ... ?
Vom - - bis: - -   Zeitraum: 22.09.2021 - 22.09.2021
Min/Max/Avg-Anzeige ... ?
Zeige MMA aktuell
Zeige MMA Monat
Zeige MMA alles
Zeige --A aktuell
Zeige --A Monat
Zeige --A alles
Keine MMA-Anzeige
MMA:
Average (ber die Originaldaten)
MMA-Basis: 22.09.2021 - 22.09.2021
Quicknavigation für Darstellung... ?
Tage:      1T, 2T, 3T, 5T -1T -2T -3T -5T +1T +2T +3T +5T
Wochen: 1W, 2W, 3W -1W -2W -3W +1W +2W +3W
Monate: 1M, 3M, 6M -1M -3M -6M +1M +3M +6M
Jahre:    1J, 3J, 5J, 10J -1J -3J -5J -10J +1J +3J +5J +10J
Nutze für die Darstellung ... ?
Originaldaten oder Mittelwerte auf ...
Stundenbasis Tagesbasis Wochenbasis
Monatsbasis Jahresbasis      Datenbasis: Original-Daten
Darstellen als:
Statistik (Auto) Statistik J:M      Darstellung:

Der gewünschte Datumsbereich war nicht gültig/verfügbar und wurde korrigiert....
Das angegebene Enddatum (09.09.2030 23:59:59) liegt in der Zukunft.
Das angegebene Startdatum (10.08.2030 00:00:00) liegt in der Zukunft.


Zur Graphik,    zurück zur Übersicht aller Sensoren.
 
Tabellarische Datenbersicht: ?
 
Sensor: Nr:Datum:Temp:Abs-Feuchte:Windchill:Wind:
Aussen-T/F 1 22-09-2021 02:00:00 7.8 C 7.67 g/m*3 7.8 C 0 km/h
2 22-09-2021 02:05:00 7.8 C 7.67 g/m*3 7.8 C 0 km/h
3 22-09-2021 02:10:00 7.8 C 7.67 g/m*3 7.8 C 0 km/h
4 22-09-2021 02:15:00 7.8 C 7.67 g/m*3 7.8 C 0 km/h
5 22-09-2021 02:20:00 7.8 C 7.67 g/m*3 7.8 C 0 km/h
6 22-09-2021 02:25:00 7.7 C 7.62 g/m*3 7.7 C 0 km/h
7 22-09-2021 02:30:00 7.7 C 7.62 g/m*3 7.7 C 0 km/h
8 22-09-2021 02:35:00 7.7 C 7.62 g/m*3 7.7 C 1.6 km/h
9 22-09-2021 02:40:00 7.7 C 7.62 g/m*3 7.7 C 0 km/h
10 22-09-2021 02:45:00 7.6 C 7.57 g/m*3 7.6 C 0 km/h
11 22-09-2021 02:50:00 7.6 C 7.57 g/m*3 7.6 C 0 km/h
12 22-09-2021 02:55:00 7.6 C 7.57 g/m*3 7.6 C 0 km/h
13 22-09-2021 03:00:00 7.5 C 7.52 g/m*3 7.5 C 0 km/h
14 22-09-2021 03:05:00 7.4 C 7.48 g/m*3 7.4 C 0 km/h
15 22-09-2021 03:10:00 7.4 C 7.48 g/m*3 7.4 C 0 km/h
16 22-09-2021 03:15:00 7.4 C 7.48 g/m*3 7.4 C 0 km/h
17 22-09-2021 03:20:00 7.4 C 7.48 g/m*3 7.4 C 0 km/h
18 22-09-2021 03:25:00 7.3 C 7.51 g/m*3 7.3 C 0 km/h
19 22-09-2021 03:30:00 7.4 C 7.55 g/m*3 7.4 C 0 km/h
20 22-09-2021 03:35:00 7.4 C 7.55 g/m*3 7.4 C 0 km/h
21 22-09-2021 03:40:00 7.4 C 7.55 g/m*3 7.4 C 0 km/h
22 22-09-2021 03:45:00 7.3 C 7.51 g/m*3 7.3 C 0 km/h
23 22-09-2021 03:50:00 7.3 C 7.51 g/m*3 7.3 C 0 km/h
24 22-09-2021 03:55:00 7.2 C 7.46 g/m*3 7.2 C 0 km/h
25 22-09-2021 04:00:00 7.2 C 7.46 g/m*3 7.2 C 0 km/h
Sensor: Nr:Datum:Temp:Abs-Feuchte:Windchill:Wind:
Aussen-T/F 26 22-09-2021 04:05:00 7.2 C 7.46 g/m*3 7.2 C 0 km/h
27 22-09-2021 04:10:00 7.1 C 7.41 g/m*3 7.1 C 0 km/h
28 22-09-2021 04:15:00 7.1 C 7.41 g/m*3 7.1 C 0 km/h
29 22-09-2021 04:20:00 7.1 C 7.41 g/m*3 7.1 C 0 km/h
30 22-09-2021 04:25:00 7.1 C 7.41 g/m*3 7.1 C 0 km/h
31 22-09-2021 04:30:00 7 C 7.36 g/m*3 7 C 0 km/h
32 22-09-2021 04:35:00 6.9 C 7.31 g/m*3 6.9 C 0 km/h
33 22-09-2021 04:40:00 6.9 C 7.31 g/m*3 6.9 C 0 km/h
34 22-09-2021 04:45:00 6.9 C 7.31 g/m*3 6.9 C 0 km/h
35 22-09-2021 04:50:00 6.9 C 7.31 g/m*3 6.9 C 0 km/h
36 22-09-2021 04:55:00 6.8 C 7.27 g/m*3 6.8 C 0 km/h
37 22-09-2021 05:00:00 6.8 C 7.27 g/m*3 6.8 C 0 km/h
38 22-09-2021 05:05:00 6.8 C 7.27 g/m*3 6.8 C 0 km/h
39 22-09-2021 05:10:00 6.7 C 7.22 g/m*3 6.7 C 0 km/h
40 22-09-2021 05:15:00 6.7 C 7.22 g/m*3 6.7 C 0 km/h
41 22-09-2021 05:20:00 6.7 C 7.22 g/m*3 6.7 C 1.6 km/h
42 22-09-2021 05:25:00 6.8 C 7.27 g/m*3 6.8 C 0 km/h
43 22-09-2021 05:30:00 6.9 C 7.31 g/m*3 6.9 C 0 km/h
44 22-09-2021 05:35:00 6.9 C 7.31 g/m*3 6.9 C 0 km/h
45 22-09-2021 05:40:00 6.8 C 7.27 g/m*3 6.8 C 0 km/h
46 22-09-2021 05:45:00 6.8 C 7.27 g/m*3 6.8 C 0 km/h
47 22-09-2021 05:50:00 6.7 C 7.22 g/m*3 6.7 C 0 km/h
48 22-09-2021 05:55:00 6.7 C 7.22 g/m*3 6.7 C 0 km/h
49 22-09-2021 06:00:00 6.6 C 7.17 g/m*3 6.6 C 0 km/h
50 22-09-2021 06:05:00 6.6 C 7.17 g/m*3 6.6 C 0 km/h
Sensor: Nr:Datum:Temp:Abs-Feuchte:Windchill:Wind:
Aussen-T/F 51 22-09-2021 06:10:00 6.5 C 7.12 g/m*3 6.5 C 0 km/h
52 22-09-2021 06:15:00 6.4 C 7.08 g/m*3 6.4 C 0 km/h
53 22-09-2021 06:20:00 6.4 C 7.08 g/m*3 6.4 C 0 km/h
54 22-09-2021 06:25:00 6.3 C 7.03 g/m*3 6.3 C 0 km/h
55 22-09-2021 06:30:00 6.3 C 7.03 g/m*3 6.3 C 0 km/h
56 22-09-2021 06:35:00 6.3 C 7.03 g/m*3 6.3 C 0 km/h
57 22-09-2021 06:40:00 6.3 C 7.03 g/m*3 6.3 C 0 km/h
58 22-09-2021 06:45:00 6.3 C 7.03 g/m*3 6.3 C 0 km/h
59 22-09-2021 06:50:00 6.2 C 6.99 g/m*3 6.2 C 0 km/h
60 22-09-2021 06:55:00 6.2 C 6.99 g/m*3 6.2 C 0 km/h
61 22-09-2021 07:00:00 6.2 C 6.99 g/m*3 6.2 C 0 km/h
62 22-09-2021 07:05:00 6.2 C 6.99 g/m*3 6.2 C 0 km/h
63 22-09-2021 07:10:00 6.2 C 6.99 g/m*3 6.2 C 0 km/h
64 22-09-2021 07:15:00 6.1 C 6.94 g/m*3 6.1 C 0 km/h
65 22-09-2021 07:20:00 6.1 C 6.94 g/m*3 6.1 C 0 km/h
66 22-09-2021 07:25:00 6.1 C 6.94 g/m*3 6.1 C 0 km/h
67 22-09-2021 07:30:00 6 C 6.9 g/m*3 6 C 0 km/h
68 22-09-2021 07:35:00 6 C 6.9 g/m*3 6 C 0 km/h
69 22-09-2021 07:40:00 6 C 6.9 g/m*3 6 C 0 km/h
70 22-09-2021 07:45:00 6.1 C 6.94 g/m*3 6.1 C 0 km/h
71 22-09-2021 07:50:00 6.1 C 7.01 g/m*3 6.1 C 0 km/h
72 22-09-2021 07:55:00 6.2 C 7.06 g/m*3 6.2 C 0 km/h
73 22-09-2021 08:00:00 6.3 C 7.11 g/m*3 6.3 C 0 km/h
74 22-09-2021 08:05:00 6.4 C 7.15 g/m*3 6.4 C 0 km/h
75 22-09-2021 08:10:00 6.6 C 7.25 g/m*3 6.6 C 0 km/h
Sensor: Nr:Datum:Temp:Abs-Feuchte:Windchill:Wind:
Aussen-T/F 76 22-09-2021 08:15:00 6.7 C 7.29 g/m*3 6.7 C 0 km/h
77 22-09-2021 08:20:00 6.7 C 7.29 g/m*3 6.7 C 0 km/h
78 22-09-2021 08:25:00 6.8 C 7.34 g/m*3 6.8 C 0 km/h
79 22-09-2021 08:30:00 6.8 C 7.34 g/m*3 6.8 C 0 km/h
80 22-09-2021 08:35:00 6.8 C 7.34 g/m*3 6.8 C 0 km/h
81 22-09-2021 08:40:00 6.9 C 7.39 g/m*3 6.9 C 0 km/h
82 22-09-2021 08:45:00 7 C 7.44 g/m*3 7 C 0 km/h
83 22-09-2021 08:50:00 7.1 C 7.49 g/m*3 7.1 C 0 km/h
84 22-09-2021 08:55:00 7.1 C 7.49 g/m*3 7.1 C 0 km/h
85 22-09-2021 09:00:00 7.2 C 7.54 g/m*3 7.2 C 0 km/h
86 22-09-2021 09:05:00 7.2 C 7.54 g/m*3 7.2 C 0 km/h
87 22-09-2021 09:10:00 7.3 C 7.58 g/m*3 7.3 C 0 km/h
88 22-09-2021 09:15:00 7.3 C 7.58 g/m*3 7.3 C 0 km/h
89 22-09-2021 09:20:00 7.4 C 7.63 g/m*3 7.4 C 0 km/h
90 22-09-2021 09:25:00 7.4 C 7.63 g/m*3 7.4 C 0 km/h
91 22-09-2021 09:30:00 7.5 C 7.68 g/m*3 7.5 C 0 km/h
92 22-09-2021 09:35:00 7.6 C 7.73 g/m*3 7.6 C 0 km/h
93 22-09-2021 09:40:00 7.6 C 7.73 g/m*3 7.6 C 0 km/h
94 22-09-2021 09:45:00 7.7 C 7.78 g/m*3 7.7 C 0 km/h
95 22-09-2021 09:50:00 7.7 C 7.78 g/m*3 7.7 C 0 km/h
96 22-09-2021 09:55:00 7.8 C 7.83 g/m*3 7.8 C 0 km/h
97 22-09-2021 10:00:00 7.9 C 7.89 g/m*3 7.9 C 0 km/h
98 22-09-2021 10:05:00 8 C 7.94 g/m*3 8 C 0 km/h
99 22-09-2021 10:10:00 8.1 C 7.99 g/m*3 8.1 C 0 km/h
100 22-09-2021 10:15:00 8.3 C 8.09 g/m*3 8.3 C 0 km/h
Sensor: Nr:Datum:Temp:Abs-Feuchte:Windchill:Wind:
Aussen-T/F 101 22-09-2021 10:20:00 8.4 C 8.23 g/m*3 8.4 C 0 km/h
102 22-09-2021 10:25:00 8.6 C 8.25 g/m*3 8.6 C 0 km/h
103 22-09-2021 10:30:00 8.7 C 8.39 g/m*3 8.7 C 0 km/h
104 22-09-2021 10:35:00 8.8 C 8.44 g/m*3 8.8 C 0 km/h
105 22-09-2021 10:40:00 9 C 8.55 g/m*3 9 C 0 km/h
106 22-09-2021 10:45:00 9.2 C 8.66 g/m*3 9.2 C 0 km/h
107 22-09-2021 10:50:00 9.3 C 8.72 g/m*3 9.3 C 0 km/h
108 22-09-2021 10:55:00 9.4 C 8.77 g/m*3 9.4 C 0 km/h
109 22-09-2021 11:00:00 9.6 C 8.89 g/m*3 9.6 C 0 km/h
110 22-09-2021 11:05:00 9.8 C 9 g/m*3 9.8 C 0 km/h
111 22-09-2021 11:10:00 10 C 9.11 g/m*3 10 C 0 km/h
112 22-09-2021 11:15:00 10.2 C 9.23 g/m*3 10.2 C 0 km/h
113 22-09-2021 11:20:00 10.3 C 9.19 g/m*3 10.3 C 0 km/h
114 22-09-2021 11:25:00 10.5 C 9.31 g/m*3 10.5 C 0 km/h
115 22-09-2021 11:30:00 10.7 C 9.43 g/m*3 10.7 C 0 km/h
116 22-09-2021 11:35:00 10.8 C 9.49 g/m*3 10.8 C 0 km/h
117 22-09-2021 11:40:00 10.9 C 9.45 g/m*3 10.9 C 0 km/h
118 22-09-2021 11:45:00 11.1 C 9.57 g/m*3 11.1 C 0 km/h
119 22-09-2021 11:50:00 11.3 C 9.69 g/m*3 11.3 C 0 km/h
120 22-09-2021 11:55:00 11.4 C 9.65 g/m*3 11.4 C 0 km/h
121 22-09-2021 12:00:00 11.6 C 9.77 g/m*3 11.6 C 0 km/h
122 22-09-2021 12:05:00 11.8 C 9.79 g/m*3 11.8 C 0 km/h
123 22-09-2021 12:10:00 12 C 9.91 g/m*3 12 C 0 km/h
124 22-09-2021 12:15:00 12.2 C 9.93 g/m*3 12.2 C 0 km/h
125 22-09-2021 12:20:00 12.5 C 10.11 g/m*3 12.5 C 0 km/h
Sensor: Nr:Datum:Temp:Abs-Feuchte:Windchill:Wind:
Aussen-T/F 126 22-09-2021 12:25:00 12.8 C 10.19 g/m*3 12.8 C 0 km/h
127 22-09-2021 12:30:00 13.1 C 10.38 g/m*3 13.1 C 0 km/h
128 22-09-2021 12:35:00 13.3 C 10.28 g/m*3 13.3 C 0 km/h
129 22-09-2021 12:40:00 13.6 C 10.47 g/m*3 13.6 C 0 km/h
130 22-09-2021 12:45:00 13.7 C 10.42 g/m*3 13.7 C 0 km/h
131 22-09-2021 12:50:00 13.8 C 10.48 g/m*3 13.8 C 0 km/h
132 22-09-2021 12:55:00 13.9 C 10.55 g/m*3 13.9 C 0 km/h
133 22-09-2021 13:00:00 14 C 10.49 g/m*3 14 C 0 km/h
134 22-09-2021 13:05:00 14.1 C 10.56 g/m*3 14.1 C 0 km/h
135 22-09-2021 13:10:00 14.2 C 10.62 g/m*3 14.2 C 0 km/h
136 22-09-2021 13:15:00 14.3 C 10.57 g/m*3 14.3 C 0 km/h
137 22-09-2021 13:20:00 14.4 C 10.51 g/m*3 14.4 C 0 km/h
138 22-09-2021 13:25:00 14.6 C 10.64 g/m*3 14.6 C 0 km/h
139 22-09-2021 13:30:00 14.7 C 10.7 g/m*3 14.7 C 0 km/h
140 22-09-2021 13:35:00 14.8 C 10.64 g/m*3 14.8 C 0 km/h
141 22-09-2021 13:40:00 15 C 10.64 g/m*3 15 C 0 km/h
142 22-09-2021 13:45:00 15.2 C 10.64 g/m*3 15.2 C 0 km/h
143 22-09-2021 13:50:00 15.4 C 10.51 g/m*3 15.4 C 0 km/h
144 22-09-2021 13:55:00 15.7 C 10.57 g/m*3 15.7 C 0 km/h
145 22-09-2021 14:00:00 16 C 10.63 g/m*3 16 C 0 km/h
146 22-09-2021 14:05:00 16.2 C 10.48 g/m*3 16.2 C 0 km/h
147 22-09-2021 14:10:00 16.4 C 10.75 g/m*3 16.4 C 0 km/h
148 22-09-2021 14:15:00 16.6 C 10.88 g/m*3 16.6 C 0 km/h
149 22-09-2021 14:20:00 16.8 C 11.15 g/m*3 16.8 C 0 km/h
150 22-09-2021 14:25:00 16.8 C 10.87 g/m*3 16.8 C 0 km/h

Legende:
   Min
   Max


Maximal/Minimal-Werte vom 22.09.2021 - 22.09.2021

Sensor Min Max Avg
Temp
(Aussen-T/F)
6 °C
22-09-2021  07:30:00
16.8 °C
22-09-2021  14:20:00
8.85 °C
Abs-Feuchte
(Aussen-T/F)
6.9 g/m*3
22-09-2021  07:30:00
11.15 g/m*3
22-09-2021  14:20:00
8.15 g/m*3
Windchill
(Aussen-T/F)
6 C
22-09-2021  07:30:00
16.8 C
22-09-2021  14:20:00
8.79 C

Die Daten stammen von einer Davis Vantage Pro 2 Wetter-Station und werden unter Linux mit der Software wview2wettercgi und aufbereitet. Alle Angaben erfolgen ohne Gewähr für ihre Vollständigkeit oder Richtigkeit.
Kontakt: Rainer Krienke krienke@uni-koblenz.de . Meine Webseiten an der Uni Koblenz oder privat.
Version: $Revision: 0.78 $